Observation data for Olton on 05/15/2018      Previous  Date  Next       Current Mesonet Observations  Soil Data  Daily Summary Page  Observations in Plain Language
KONS 150500Z 11011KT 21/12 A2996 RMK A01 T02070124  RH  060%=      5-min Rain = 0
KONS 150505Z 12012KT 21/12 A2997 RMK A01 T02090122  RH  059%=      5-min Rain = 0
KONS 150510Z 12011KT 21/12 A2997 RMK A01 T02100122  RH  058%=      5-min Rain = 0
KONS 150515Z 11015G20KT 21/12 A2997 RMK A01 T02090122  RH  059%=      5-min Rain = 0
KONS 150520Z 12014G19KT 21/12 A2996 RMK A01 T02080123  RH  059%=      5-min Rain = 0
KONS 150525Z 12015KT 21/12 A2997 RMK A01 T02080123  RH  060%=      5-min Rain = 0
KONS 150530Z 12014KT 21/12 A2996 RMK A01 T02090122  RH  059%=      5-min Rain = 0
KONS 150535Z 12013G19KT 21/12 A2996 RMK A01 T02070122  RH  059%=      5-min Rain = 0
KONS 150540Z 12013G21KT 21/12 A2996 RMK A01 T02070121  RH  059%=      5-min Rain = 0
KONS 150545Z 12013KT 21/12 A2996 RMK A01 T02060121  RH  059%=      5-min Rain = 0
KONS 150550Z 12013KT 21/12 A2996 RMK A01 T02050121  RH  059%=      5-min Rain = 0
KONS 150555Z 12013G18KT 20/12 A2997 RMK A01 T02040121  RH  060%=      5-min Rain = 0
KONS 150600Z 12011G16KT 20/12 A2997 RMK A01 T02020121  RH  061%=      5-min Rain = 0
KONS 150605Z 12011KT 20/12 A2997 RMK A01 T02000121  RH  062%=      5-min Rain = 0
KONS 150610Z 12012KT 20/12 A2997 RMK A01 T01990122  RH  062%=      5-min Rain = 0
KONS 150615Z 12013KT 20/12 A2997 RMK A01 T01980122  RH  063%=      5-min Rain = 0
KONS 150620Z 12012KT 20/12 A2997 RMK A01 T01970122  RH  063%=      5-min Rain = 0
KONS 150625Z 12012KT 20/12 A2997 RMK A01 T01950122  RH  064%=      5-min Rain = 0
KONS 150630Z 12012G17KT 19/12 A2996 RMK A01 T01930122  RH  065%=      5-min Rain = 0
KONS 150635Z 12012KT 19/12 A2996 RMK A01 T01920123  RH  065%=      5-min Rain = 0
KONS 150640Z 12011KT 19/12 A2997 RMK A01 T01910123  RH  066%=      5-min Rain = 0
KONS 150645Z 13012KT 19/12 A2997 RMK A01 T01890123  RH  067%=      5-min Rain = 0
KONS 150650Z 13011KT 19/12 A2996 RMK A01 T01870123  RH  068%=      5-min Rain = 0
KONS 150655Z 13011KT 19/12 A2996 RMK A01 T01850124  RH  069%=      5-min Rain = 0
KONS 150700Z 13011KT 18/12 A2996 RMK A01 T01830124  RH  069%=      5-min Rain = 0
KONS 150705Z 13011KT 18/12 A2996 RMK A01 T01810124  RH  070%=      5-min Rain = 0
KONS 150710Z 13012KT 18/13 A2996 RMK A01 T01810125  RH  071%=      5-min Rain = 0
KONS 150715Z 13012KT 18/13 A2995 RMK A01 T01810125  RH  071%=      5-min Rain = 0
KONS 150720Z 13012KT 18/13 A2995 RMK A01 T01810126  RH  071%=      5-min Rain = 0
KONS 150725Z 13011KT 18/13 A2995 RMK A01 T01810127  RH  072%=      5-min Rain = 0
KONS 150730Z 13012KT 18/13 A2995 RMK A01 T01810127  RH  072%=      5-min Rain = 0
KONS 150735Z 13011KT 18/13 A2995 RMK A01 T01810128  RH  072%=      5-min Rain = 0
KONS 150740Z 14010KT 18/13 A2995 RMK A01 T01810129  RH  073%=      5-min Rain = 0
KONS 150745Z 14009KT 18/13 A2996 RMK A01 T01810130  RH  073%=      5-min Rain = 0
KONS 150750Z 14009KT 18/13 A2996 RMK A01 T01820131  RH  074%=      5-min Rain = 0
KONS 150755Z 13008KT 18/13 A2996 RMK A01 T01800130  RH  074%=      5-min Rain = 0
KONS 150800Z 14007KT 18/13 A2996 RMK A01 T01790129  RH  074%=      5-min Rain = 0
KONS 150805Z 14007KT 18/13 A2996 RMK A01 T01770129  RH  075%=      5-min Rain = 0
KONS 150810Z 14008KT 18/13 A2996 RMK A01 T01750129  RH  076%=      5-min Rain = 0
KONS 150815Z 14008KT 17/13 A2996 RMK A01 T01740129  RH  076%=      5-min Rain = 0
KONS 150820Z 14007KT 17/13 A2996 RMK A01 T01720128  RH  077%=      5-min Rain = 0
KONS 150825Z 14007KT 17/13 A2996 RMK A01 T01700127  RH  077%=      5-min Rain = 0
KONS 150830Z 14006KT 17/13 A2996 RMK A01 T01670126  RH  078%=      5-min Rain = 0
KONS 150835Z 14006KT 17/13 A2996 RMK A01 T01650126  RH  079%=      5-min Rain = 0
KONS 150840Z 14007KT 16/13 A2996 RMK A01 T01630126  RH  080%=      5-min Rain = 0
KONS 150845Z 15008KT 16/13 A2996 RMK A01 T01610125  RH  081%=      5-min Rain = 0
KONS 150850Z 15008KT 16/13 A2996 RMK A01 T01590126  RH  082%=      5-min Rain = 0
KONS 150855Z 17009KT 16/13 A2995 RMK A01 T01580127  RH  083%=      5-min Rain = 0
KONS 150900Z 17010KT 16/13 A2995 RMK A01 T01620134  RH  085%=      5-min Rain = 0
KONS 150905Z 18010KT 17/14 A2995 RMK A01 T01660138  RH  085%=      5-min Rain = 0
KONS 150910Z 18010KT 17/14 A2995 RMK A01 T01680140  RH  086%=      5-min Rain = 0
KONS 150915Z 18011KT 17/15 A2995 RMK A01 T01710145  RH  087%=      5-min Rain = 0
KONS 150920Z 18011KT 17/15 A2995 RMK A01 T01740150  RH  088%=      5-min Rain = 0
KONS 150925Z 18011KT 18/15 A2995 RMK A01 T01760152  RH  088%=      5-min Rain = 0
KONS 150930Z 18011KT 18/15 A2995 RMK A01 T01770154  RH  088%=      5-min Rain = 0
KONS 150935Z 18012G17KT 18/16 A2995 RMK A01 T01790157  RH  089%=      5-min Rain = 0
KONS 150940Z 19012G17KT 18/16 A2995 RMK A01 T01820159  RH  088%=      5-min Rain = 0
KONS 150945Z 19013G18KT 18/16 A2995 RMK A01 T01820159  RH  088%=      5-min Rain = 0
KONS 150950Z 19014G19KT 18/16 A2995 RMK A01 T01830160  RH  088%=      5-min Rain = 0
KONS 150955Z 20014G19KT 18/16 A2995 RMK A01 T01840160  RH  088%=      5-min Rain = 0
KONS 151000Z 20013G18KT 18/16 A2995 RMK A01 T01840160  RH  088%=      5-min Rain = 0
KONS 151005Z 19012KT 18/16 A2995 RMK A01 T01830159  RH  088%=      5-min Rain = 0
KONS 151010Z 19011KT 18/16 A2995 RMK A01 T01810158  RH  089%=      5-min Rain = 0
KONS 151015Z 19011KT 18/16 A2995 RMK A01 T01790157  RH  089%=      5-min Rain = 0
KONS 151020Z 19010KT 18/16 A2996 RMK A01 T01780157  RH  090%=      5-min Rain = 0
KONS 151025Z 19011KT 18/16 A2995 RMK A01 T01770157  RH  090%=      5-min Rain = 0
KONS 151030Z 19011KT 18/16 A2995 RMK A01 T01760157  RH  090%=      5-min Rain = 0
KONS 151035Z 19011KT 18/16 A2995 RMK A01 T01760157  RH  090%=      5-min Rain = 0
KONS 151040Z 19011KT 18/16 A2995 RMK A01 T01770157  RH  090%=      5-min Rain = 0
KONS 151045Z 18010KT 18/16 A2995 RMK A01 T01770158  RH  091%=      5-min Rain = 0
KONS 151050Z 18011KT 18/16 A2995 RMK A01 T01760157  RH  091%=      5-min Rain = 0
KONS 151055Z 18009KT 18/16 A2995 RMK A01 T01760157  RH  091%=      5-min Rain = 0
KONS 151100Z 19009KT 18/16 A2995 RMK A01 T01760157  RH  091%=      5-min Rain = 0
KONS 151105Z 19009KT 18/16 A2995 RMK A01 T01750157  RH  091%=      5-min Rain = 0
KONS 151110Z 19008KT 17/16 A2995 RMK A01 T01730156  RH  091%=      5-min Rain = 0
KONS 151115Z 20008KT 17/16 A2995 RMK A01 T01720156  RH  092%=      5-min Rain = 0
KONS 151120Z 21008KT 17/16 A2995 RMK A01 T01720155  RH  092%=      5-min Rain = 0
KONS 151125Z 21008KT 17/16 A2995 RMK A01 T01710155  RH  092%=      5-min Rain = 0
KONS 151130Z 21008KT 17/15 A2995 RMK A01 T01700154  RH  092%=      5-min Rain = 0
KONS 151135Z 21008KT 17/15 A2995 RMK A01 T01700154  RH  092%=      5-min Rain = 0
KONS 151140Z 21007KT 17/15 A2996 RMK A01 T01690154  RH  092%=      5-min Rain = 0
KONS 151145Z 22007KT 17/15 A2996 RMK A01 T01690153  RH  092%=      5-min Rain = 0
KONS 151150Z 21006KT 17/15 A2996 RMK A01 T01680152  RH  093%=      5-min Rain = 0
KONS 151155Z 21006KT 17/15 A2996 RMK A01 T01670152  RH  093%=      5-min Rain = 0
KONS 151200Z 21006KT 17/15 A2996 RMK A01 T01670152  RH  093%=      5-min Rain = 0
KONS 151205Z 20007KT 17/15 A2997 RMK A01 T01670152  RH  093%=      5-min Rain = 0
KONS 151210Z 20007KT 17/15 A2997 RMK A01 T01670152  RH  093%=      5-min Rain = 0
KONS 151215Z 21008KT 17/15 A2997 RMK A01 T01680154  RH  093%=      5-min Rain = 0
KONS 151220Z 21007KT 17/15 A2997 RMK A01 T01690154  RH  093%=      5-min Rain = 0
KONS 151225Z 20008KT 17/15 A2998 RMK A01 T01690154  RH  093%=      5-min Rain = 0
KONS 151230Z 20009KT 17/16 A2998 RMK A01 T01690155  RH  093%=      5-min Rain = 0
KONS 151235Z 20010KT 17/16 A2998 RMK A01 T01710156  RH  093%=      5-min Rain = 0
KONS 151240Z 21010KT 17/16 A2998 RMK A01 T01720158  RH  093%=      5-min Rain = 0
KONS 151245Z 21011KT 17/16 A2998 RMK A01 T01740159  RH  093%=      5-min Rain = 0
KONS 151250Z 21012KT 18/16 A2997 RMK A01 T01760160  RH  093%=      5-min Rain = 0
KONS 151255Z 22011G16KT 18/16 A2997 RMK A01 T01780161  RH  092%=      5-min Rain = 0
KONS 151300Z 22012G17KT 18/16 A2997 RMK A01 T01790161  RH  091%=      5-min Rain = 0
KONS 151305Z 22012KT 18/16 A2997 RMK A01 T01810162  RH  091%=      5-min Rain = 0
KONS 151310Z 23011G16KT 18/16 A2998 RMK A01 T01830162  RH  090%=      5-min Rain = 0
KONS 151315Z 22012KT 19/16 A2998 RMK A01 T01850162  RH  088%=      5-min Rain = 0
KONS 151320Z 23012G18KT 19/16 A2998 RMK A01 T01880163  RH  087%=      5-min Rain = 0
KONS 151325Z 24014G19KT 19/16 A2999 RMK A01 T01900162  RH  086%=      5-min Rain = 0
KONS 151330Z 28013G21KT 19/16 A3001 RMK A01 T01940163  RH  084%=      5-min Rain = 0
KONS 151335Z 30012G20KT 20/16 A3002 RMK A01 T01950160  RH  082%=      5-min Rain = 0
KONS 151340Z 27006KT 20/16 A3001 RMK A01 T01970161  RH  081%=      5-min Rain = 0
KONS 151345Z 29011G17KT 20/16 A3003 RMK A01 T02010160  RH  079%=      5-min Rain = 0
KONS 151350Z 25008KT 20/16 A3001 RMK A01 T02000159  RH  079%=      5-min Rain = 0
KONS 151355Z 26011KT 20/16 A3001 RMK A01 T02010157  RH  078%=      5-min Rain = 0
KONS 151400Z 25011KT 21/16 A3001 RMK A01 T02060158  RH  076%=      5-min Rain = 0
KONS 151405Z 26012KT 21/16 A3001 RMK A01 T02090156  RH  073%=      5-min Rain = 0
KONS 151410Z 26015G21KT 21/15 A3001 RMK A01 T02100152  RH  071%=      5-min Rain = 0
KONS 151415Z 27013G19KT 21/15 A3001 RMK A01 T02130152  RH  070%=      5-min Rain = 0
KONS 151420Z 27013KT 22/15 A3001 RMK A01 T02150150  RH  068%=      5-min Rain = 0
KONS 151425Z 27012KT 22/15 A3001 RMK A01 T02180151  RH  067%=      5-min Rain = 0
KONS 151430Z 27013KT 22/15 A3001 RMK A01 T02190149  RH  066%=      5-min Rain = 0
KONS 151435Z 27014KT 22/14 A3001 RMK A01 T02210143  RH  062%=      5-min Rain = 0
KONS 151440Z 26012KT 22/14 A3001 RMK A01 T02210143  RH  062%=      5-min Rain = 0
KONS 151445Z 27014G19KT 22/14 A3002 RMK A01 T02240135  RH  058%=      5-min Rain = 0
KONS 151450Z 27013KT 23/13 A3002 RMK A01 T02260133  RH  057%=      5-min Rain = 0
KONS 151455Z 29011G16KT 23/13 A3002 RMK A01 T02300131  RH  055%=      5-min Rain = 0
KONS 151500Z 31013KT 23/12 A3002 RMK A01 T02320123  RH  051%=      5-min Rain = 0
KONS 151505Z 30011G16KT 23/12 A3003 RMK A01 T02300124  RH  052%=      5-min Rain = 0
KONS 151510Z 31011KT 23/12 A3003 RMK A01 T02290120  RH  051%=      5-min Rain = 0
KONS 151515Z 31010KT 23/12 A3003 RMK A01 T02300121  RH  051%=      5-min Rain = 0
KONS 151520Z 30008KT 23/12 A3003 RMK A01 T02310122  RH  051%=      5-min Rain = 0
KONS 151525Z 34008G14KT 23/12 A3003 RMK A01 T02340115  RH  048%=      5-min Rain = 0
KONS 151530Z 36009KT 24/11 A3003 RMK A01 T02350110  RH  046%=      5-min Rain = 0
KONS 151535Z 34005KT 23/11 A3003 RMK A01 T02330114  RH  048%=      5-min Rain = 0
KONS 151540Z 35008KT 24/11 A3003 RMK A01 T02370111  RH  046%=      5-min Rain = 0
KONS 151545Z 01005G10KT 24/11 A3003 RMK A01 T02370111  RH  046%=      5-min Rain = 0
KONS 151550Z 35007KT 24/11 A3003 RMK A01 T02380108  RH  045%=      5-min Rain = 0
KONS 151555Z 01008KT 24/11 A3003 RMK A01 T02380110  RH  045%=      5-min Rain = 0
KONS 151600Z 00008KT 24/11 A3004 RMK A01 T02400108  RH  044%=      5-min Rain = 0
KONS 151605Z 01007KT 24/11 A3004 RMK A01 T02390108  RH  044%=      5-min Rain = 0
KONS 151610Z 00006KT 24/11 A3004 RMK A01 T02430109  RH  044%=      5-min Rain = 0
KONS 151615Z 02006KT 24/11 A3004 RMK A01 T02430111  RH  044%=      5-min Rain = 0
KONS 151620Z 01005KT 24/11 A3004 RMK A01 T02430108  RH  044%=      5-min Rain = 0
KONS 151625Z 02005KT 25/11 A3004 RMK A01 T02450109  RH  043%=      5-min Rain = 0
KONS 151630Z 07004G9KT 25/11 A3004 RMK A01 T02470112  RH  043%=      5-min Rain = 0
KONS 151635Z 08005KT 25/10 A3004 RMK A01 T02500104  RH  040%=      5-min Rain = 0
KONS 151640Z 04006KT 25/11 A3004 RMK A01 T02490109  RH  042%=      5-min Rain = 0
KONS 151645Z 06006KT 25/12 A3004 RMK A01 T02510115  RH  043%=      5-min Rain = 0
KONS 151650Z 03006KT 25/12 A3004 RMK A01 T02530120  RH  044%=      5-min Rain = 0
KONS 151655Z 05009KT 26/12 A3004 RMK A01 T02580121  RH  043%=      5-min Rain = 0
KONS 151700Z 07004KT 26/12 A3004 RMK A01 T02550121  RH  044%=      5-min Rain = 0
KONS 151705Z 03009G15KT 26/12 A3004 RMK A01 T02590124  RH  044%=      5-min Rain = 0
KONS 151710Z 06006KT 26/12 A3004 RMK A01 T02590124  RH  044%=      5-min Rain = 0
KONS 151715Z 05008KT 27/13 A3004 RMK A01 T02650125  RH  043%=      5-min Rain = 0
KONS 151720Z 05006G13KT 26/12 A3004 RMK A01 T02610118  RH  042%=      5-min Rain = 0
KONS 151725Z 07007KT 26/12 A3005 RMK A01 T02630119  RH  042%=      5-min Rain = 0
KONS 151730Z 05007G13KT 27/12 A3004 RMK A01 T02660124  RH  042%=      5-min Rain = 0
KONS 151735Z 06007KT 27/13 A3004 RMK A01 T02670130  RH  044%=      5-min Rain = 0
KONS 151740Z 06007KT 27/13 A3004 RMK A01 T02690132  RH  044%=      5-min Rain = 0
KONS 151745Z 04008KT 27/13 A3004 RMK A01 T02680129  RH  043%=      5-min Rain = 0
KONS 151750Z 04010G15KT 27/12 A3004 RMK A01 T02700123  RH  041%=      5-min Rain = 0
KONS 151755Z 05006G12KT 27/12 A3004 RMK A01 T02680122  RH  041%=      5-min Rain = 0
KONS 151800Z 04007KT 27/12 A3004 RMK A01 T02710123  RH  041%=      5-min Rain = 0
KONS 151805Z 07007KT 28/13 A3004 RMK A01 T02750127  RH  041%=      5-min Rain = 0
KONS 151810Z 07010G21KT 28/12 A3004 RMK A01 T02760124  RH  040%=      5-min Rain = 0
KONS 151815Z 10008G13KT 27/13 A3004 RMK A01 T02740125  RH  040%=      5-min Rain = 0
KONS 151820Z 10008KT 28/13 A3004 RMK A01 T02760125  RH  040%=      5-min Rain = 0
KONS 151825Z 08010G15KT 28/12 A3004 RMK A01 T02760122  RH  039%=      5-min Rain = 0
KONS 151830Z 09008G13KT 27/12 A3004 RMK A01 T02740120  RH  039%=      5-min Rain = 0
KONS 151835Z 08010G15KT 28/12 A3004 RMK A01 T02770122  RH  039%=      5-min Rain = 0
KONS 151840Z 08008G14KT 28/12 A3004 RMK A01 T02770118  RH  038%=      5-min Rain = 0
KONS 151845Z 07006G12KT 28/12 A3004 RMK A01 T02780119  RH  038%=      5-min Rain = 0
KONS 151850Z 07005G10KT 28/11 A3004 RMK A01 T02770113  RH  037%=      5-min Rain = 0
KONS 151855Z 07008G14KT 28/11 A3003 RMK A01 T02800114  RH  036%=      5-min Rain = 0
KONS 151900Z 03010KT 29/12 A3003 RMK A01 T02860115  RH  035%=      5-min Rain = 0
KONS 151905Z 09010KT 29/12 A3003 RMK A01 T02860118  RH  036%=      5-min Rain = 0
KONS 151910Z 12006KT 28/12 A3003 RMK A01 T02830115  RH  036%=      5-min Rain = 0
KONS 151915Z 08006G13KT 28/11 A3003 RMK A01 T02810113  RH  036%=      5-min Rain = 0
KONS 151920Z 09011G18KT 28/13 A3003 RMK A01 T02840133  RH  040%=      5-min Rain = 0
KONS 151925Z 06012G18KT 29/14 A3003 RMK A01 T02850137  RH  041%=      5-min Rain = 0
KONS 151930Z 07013G20KT 29/14 A3003 RMK A01 T02870137  RH  040%=      5-min Rain = 0
KONS 151935Z 06012KT 28/14 A3002 RMK A01 T02840138  RH  041%=      5-min Rain = 0
KONS 151940Z 08012G18KT 29/14 A3002 RMK A01 T02860138  RH  041%=      5-min Rain = 0
KONS 151945Z 07015G21KT 29/14 A3002 RMK A01 T02860138  RH  041%=      5-min Rain = 0
KONS 151950Z 05011KT 28/13 A3002 RMK A01 T02820132  RH  040%=      5-min Rain = 0
KONS 151955Z 10011G16KT 29/14 A3002 RMK A01 T02890137  RH  040%=      5-min Rain = 0
KONS 152000Z 09012G17KT 29/14 A3002 RMK A01 T02910136  RH  039%=      5-min Rain = 0
KONS 152005Z 07011KT 29/14 A3002 RMK A01 T02880136  RH  040%=      5-min Rain = 0
KONS 152010Z 09011KT 29/14 A3002 RMK A01 T02850135  RH  040%=      5-min Rain = 0
KONS 152015Z 09010G17KT 29/13 A3002 RMK A01 T02870133  RH  040%=      5-min Rain = 0
KONS 152020Z 08012G20KT 29/13 A3001 RMK A01 T02850131  RH  039%=      5-min Rain = 0
KONS 152025Z 09012KT 29/13 A3001 RMK A01 T02900126  RH  037%=      5-min Rain = 0
KONS 152030Z 10007G12KT 29/12 A3001 RMK A01 T02890121  RH  036%=      5-min Rain = 0
KONS 152035Z 09009KT 29/12 A3001 RMK A01 T02890120  RH  036%=      5-min Rain = 0
KONS 152040Z 12006G11KT 29/12 A3001 RMK A01 T02890120  RH  036%=      5-min Rain = 0
KONS 152045Z 11007KT 29/12 A3001 RMK A01 T02890119  RH  035%=      5-min Rain = 0
KONS 152050Z 12007G12KT 29/11 A3001 RMK A01 T02920113  RH  034%=      5-min Rain = 0
KONS 152055Z 09009G15KT 30/12 A30 RMK A01 T02950117  RH  034%=      5-min Rain = 0
KONS 152100Z 09012KT 29/12 A30 RMK A01 T02940122  RH  035%=      5-min Rain = 0
KONS 152105Z 11010KT 29/12 A30 RMK A01 T02910119  RH  035%=      5-min Rain = 0
KONS 152110Z 13006KT 29/12 A2999 RMK A01 T02910117  RH  035%=      5-min Rain = 0
KONS 152115Z 13008KT 29/11 A2999 RMK A01 T02930113  RH  033%=      5-min Rain = 0
KONS 152120Z 08011G16KT 29/13 A2999 RMK A01 T02930126  RH  036%=      5-min Rain = 0
KONS 152125Z 08014KT 29/13 A2998 RMK A01 T02940125  RH  036%=      5-min Rain = 0
KONS 152130Z 08011G16KT 29/12 A2998 RMK A01 T02920123  RH  036%=      5-min Rain = 0
KONS 152135Z 07008KT 29/12 A2998 RMK A01 T02910117  RH  035%=      5-min Rain = 0
KONS 152140Z 07006G12KT 29/11 A2998 RMK A01 T02910113  RH  034%=      5-min Rain = 0
KONS 152145Z 07008G14KT 29/11 A2997 RMK A01 T02920113  RH  034%=      5-min Rain = 0
KONS 152150Z 07012KT 30/13 A2996 RMK A01 T02960125  RH  036%=      5-min Rain = 0
KONS 152155Z 09012KT 30/12 A2996 RMK A01 T02980122  RH  034%=      5-min Rain = 0
KONS 152200Z 08010G16KT 29/11 A2996 RMK A01 T02940114  RH  033%=      5-min Rain = 0
KONS 152205Z 09011G16KT 29/11 A2996 RMK A01 T02890113  RH  034%=      5-min Rain = 0
KONS 152210Z 07012G18KT 28/12 A2996 RMK A01 T02830121  RH  037%=      5-min Rain = 0
KONS 152215Z 06009KT 28/12 A2996 RMK A01 T02800121  RH  038%=      5-min Rain = 0
KONS 152220Z 06013G18KT 27/14 A2996 RMK A01 T02720140  RH  045%=      5-min Rain = 0.02
KONS 152225Z 07009G15KT 26/15 A2996 RMK A01 T02600147  RH  051%=      5-min Rain = 0
KONS 152230Z 05007KT 26/15 A2996 RMK A01 T02590149  RH  052%=      5-min Rain = 0
KONS 152235Z 06008KT 26/16 A2995 RMK A01 T02570157  RH  055%=      5-min Rain = 0
KONS 152240Z 07009KT 25/17 A2994 RMK A01 T02520169  RH  061%=      5-min Rain = 0
KONS 152245Z 07010KT 25/16 A2994 RMK A01 T02510161  RH  058%=      5-min Rain = 0
KONS 152250Z 08009KT 25/16 A2995 RMK A01 T02520158  RH  057%=      5-min Rain = 0
KONS 152255Z 08008KT 25/16 A2995 RMK A01 T02530155  RH  056%=      5-min Rain = 0
KONS 152300Z 09006KT 26/16 A2996 RMK A01 T02560164  RH  058%=      5-min Rain = 0
KONS 152305Z 09008KT 27/16 A2995 RMK A01 T02660162  RH  054%=      5-min Rain = 0
KONS 152310Z 08010KT 27/15 A2994 RMK A01 T02720152  RH  049%=      5-min Rain = 0
KONS 152315Z 08010KT 27/15 A2994 RMK A01 T02740150  RH  048%=      5-min Rain = 0
KONS 152320Z 08011KT 28/15 A2994 RMK A01 T02750146  RH  046%=      5-min Rain = 0
KONS 152325Z 09010KT 28/14 A2994 RMK A01 T02760142  RH  044%=      5-min Rain = 0
KONS 152330Z 08010KT 27/14 A2994 RMK A01 T02730138  RH  044%=      5-min Rain = 0
KONS 152335Z 09009KT 27/14 A2994 RMK A01 T02720138  RH  045%=      5-min Rain = 0
KONS 152340Z 07009KT 27/14 A2994 RMK A01 T02690137  RH  045%=      5-min Rain = 0
KONS 152345Z 06007KT 27/14 A2993 RMK A01 T02690138  RH  045%=      5-min Rain = 0
KONS 152350Z 06011KT 27/14 A2993 RMK A01 T02730137  RH  044%=      5-min Rain = 0
KONS 152355Z 07012KT 28/13 A2993 RMK A01 T02750133  RH  042%=      5-min Rain = 0
KONS 160000Z 08012KT 28/13 A2993 RMK A01 T02750131  RH  042%=      5-min Rain = 0
KONS 160005Z 09013KT 28/13 A2993 RMK A01 T02760127  RH  040%=      5-min Rain = 0
KONS 160010Z 14020G30KT 27/13 A2994 RMK A01 T02650125  RH  043%=      5-min Rain = 0
KONS 160015Z 14022KT 23/13 A2994 RMK A01 T02260132  RH  056%=      5-min Rain = 0
KONS 160020Z 14024G31KT 21/14 A2994 RMK A01 T02100136  RH  064%=      5-min Rain = 0
KONS 160025Z 12024G31KT 20/13 A2993 RMK A01 T01950132  RH  068%=      5-min Rain = 0
KONS 160030Z 11023G30KT 19/13 A2992 RMK A01 T01920126  RH  067%=      5-min Rain = 0
KONS 160035Z 11025G30KT 19/12 A2991 RMK A01 T01920120  RH  064%=      5-min Rain = 0
KONS 160040Z 12019G27KT 19/12 A2992 RMK A01 T01920117  RH  063%=      5-min Rain = 0
KONS 160045Z 12017G23KT 19/11 A2993 RMK A01 T01930110  RH  059%=      5-min Rain = 0
KONS 160050Z 12015KT 19/11 A2992 RMK A01 T01930106  RH  058%=      5-min Rain = 0
KONS 160055Z 10016KT 20/11 A2992 RMK A01 T01950106  RH  057%=      5-min Rain = 0
KONS 160100Z 11014G20KT 19/10 A2994 RMK A01 T01940104  RH  057%=      5-min Rain = 0
KONS 160105Z 11011KT 19/11 A2996 RMK A01 T01920105  RH  058%=      5-min Rain = 0
KONS 160110Z 10010KT 19/11 A2997 RMK A01 T01930108  RH  059%=      5-min Rain = 0
KONS 160115Z 11008KT 19/11 A2995 RMK A01 T01930110  RH  059%=      5-min Rain = 0
KONS 160120Z 13007KT 19/11 A2994 RMK A01 T01930111  RH  060%=      5-min Rain = 0
KONS 160125Z 09007KT 19/11 A2996 RMK A01 T01930113  RH  061%=      5-min Rain = 0
KONS 160130Z 06009KT 19/11 A2998 RMK A01 T01940112  RH  060%=      5-min Rain = 0
KONS 160135Z 35016G34KT 20/11 A3002 RMK A01 T01990108  RH  057%=      5-min Rain = 0
KONS 160140Z 35027G36KT 18/11 A3004 RMK A01 T01820112  RH  065%=      5-min Rain = 0
KONS 160145Z 35022G37KT 18/11 A3005 RMK A01 T01800111  RH  065%=      5-min Rain = 0
KONS 160150Z 36030G40KT 17/11 A3004 RMK A01 T01740114  RH  069%=      5-min Rain = 0
KONS 160155Z 02026G34KT 16/12 A3001 RMK A01 T01640117  RH  075%=      5-min Rain = 0
KONS 160200Z 02021G29KT 16/11 A3001 RMK A01 T01620107  RH  071%=      5-min Rain = 0
KONS 160205Z 04020G28KT 17/10 A2998 RMK A01 T01710101  RH  064%=      5-min Rain = 0
KONS 160210Z 02016G24KT 18/11 A30 RMK A01 T01790108  RH  064%=      5-min Rain = 0
KONS 160215Z 02013G20KT 18/12 A30 RMK A01 T01810117  RH  067%=      5-min Rain = 0
KONS 160220Z 03015KT 18/12 A30 RMK A01 T01760117  RH  070%=      5-min Rain = 0
KONS 160225Z 02015KT 17/11 A30 RMK A01 T01720109  RH  068%=      5-min Rain = 0
KONS 160230Z 04018KT 17/10 A30 RMK A01 T01710102  RH  065%=      5-min Rain = 0
KONS 160235Z 04017KT 17/11 A30 RMK A01 T01720108  RH  067%=      5-min Rain = 0
KONS 160240Z 03015KT 17/12 A30 RMK A01 T01710120  RH  073%=      5-min Rain = 0
KONS 160245Z 05013KT 17/13 A2999 RMK A01 T01690126  RH  077%=      5-min Rain = 0
KONS 160250Z 06012KT 17/13 A2999 RMK A01 T01660127  RH  079%=      5-min Rain = 0
KONS 160255Z 05013KT 16/12 A30 RMK A01 T01640124  RH  079%=      5-min Rain = 0
KONS 160300Z 05011KT 16/12 A30 RMK A01 T01620116  RH  076%=      5-min Rain = 0
KONS 160305Z 06008G13KT 16/11 A30 RMK A01 T01610109  RH  072%=      5-min Rain = 0
KONS 160310Z 06006KT 16/11 A30 RMK A01 T01600105  RH  071%=      5-min Rain = 0
KONS 160315Z 05007KT 16/10 A30 RMK A01 T01580102  RH  070%=      5-min Rain = 0
KONS 160320Z 06007KT 16/10 A30 RMK A01 T01570101  RH  070%=      5-min Rain = 0
KONS 160325Z 07006KT 16/10 A30 RMK A01 T01550101  RH  072%=      5-min Rain = 0
KONS 160330Z 07005KT 15/10 A30 RMK A01 T01530101  RH  073%=      5-min Rain = 0
KONS 160335Z 06005KT 15/10 A3001 RMK A01 T01510101  RH  073%=      5-min Rain = 0
KONS 160340Z 05005KT 15/10 A3002 RMK A01 T01480102  RH  075%=      5-min Rain = 0
KONS 160345Z 07001KT 15/10 A3001 RMK A01 T01470102  RH  075%=      5-min Rain = 0
KONS 160350Z 14002KT 15/10 A3001 RMK A01 T01450101  RH  076%=      5-min Rain = 0
KONS 160355Z 12003KT 14/10 A3001 RMK A01 T01440100  RH  076%=      5-min Rain = 0
KONS 160400Z 13003KT 14/10 A30 RMK A01 T01420098  RH  076%=      5-min Rain = 0
KONS 160405Z 14004KT 14/10 A30 RMK A01 T01400097  RH  077%=      5-min Rain = 0
KONS 160410Z 17005KT 14/10 A30 RMK A01 T01400098  RH  077%=      5-min Rain = 0
KONS 160415Z 18006KT 14/10 A30 RMK A01 T01380100  RH  079%=      5-min Rain = 0
KONS 160420Z 19006KT 14/10 A3001 RMK A01 T01380101  RH  080%=      5-min Rain = 0
KONS 160425Z 18006KT 14/10 A3001 RMK A01 T01380101  RH  079%=      5-min Rain = 0
KONS 160430Z 18008KT 14/10 A3001 RMK A01 T01380100  RH  079%=      5-min Rain = 0
KONS 160435Z 18008KT 14/10 A3001 RMK A01 T01410099  RH  078%=      5-min Rain = 0
KONS 160440Z 18008KT 14/10 A3001 RMK A01 T01410098  RH  076%=      5-min Rain = 0
KONS 160445Z 18009KT 14/10 A3002 RMK A01 T01400097  RH  077%=      5-min Rain = 0
KONS 160450Z 17009KT 14/10 A3002 RMK A01 T01390097  RH  077%=      5-min Rain = 0
KONS 160455Z 16010KT 14/10 A3003 RMK A01 T01410097  RH  076%=      5-min Rain = 0

Page generated in 0.0435 seconds.